createdAt,value
2022-11-16T00:02:13.935Z,7.60
2022-11-16T00:04:42.994Z,7.60
2022-11-16T00:07:11.782Z,7.60
2022-11-16T00:09:41.282Z,7.70
2022-11-16T00:12:12.565Z,7.70
2022-11-16T00:14:40.663Z,7.60
2022-11-16T00:17:08.757Z,7.70
2022-11-16T00:19:36.876Z,7.70
2022-11-16T00:22:05.010Z,7.70
2022-11-16T00:24:33.112Z,7.60
2022-11-16T00:27:02.603Z,7.60
2022-11-16T00:29:30.669Z,7.50
2022-11-16T00:31:58.807Z,7.60
2022-11-16T00:34:28.255Z,7.50
2022-11-16T00:36:56.343Z,7.40
2022-11-16T00:39:25.609Z,7.50
2022-11-16T00:41:53.743Z,7.50
2022-11-16T00:44:23.264Z,7.50
2022-11-16T00:46:51.719Z,7.50
2022-11-16T00:49:19.797Z,7.50
2022-11-16T00:51:47.921Z,7.40
2022-11-16T00:54:16.084Z,7.40
2022-11-16T00:56:44.162Z,7.30
2022-11-16T00:59:13.037Z,7.20
2022-11-16T01:01:44.788Z,7.10
2022-11-16T01:04:13.233Z,7.10
2022-11-16T01:06:41.358Z,7.00
2022-11-16T01:09:09.570Z,6.90
2022-11-16T01:11:52.255Z,6.90
2022-11-16T01:14:20.390Z,6.90
2022-11-16T01:16:52.102Z,6.90
2022-11-16T01:19:21.754Z,6.90
2022-11-16T01:21:49.905Z,6.80
2022-11-16T01:24:18.002Z,6.70
2022-11-16T01:26:46.079Z,6.80
2022-11-16T01:29:15.059Z,6.70
2022-11-16T01:31:48.244Z,6.70
2022-11-16T01:34:17.838Z,6.70
2022-11-16T01:36:46.626Z,6.60
2022-11-16T01:39:16.966Z,6.70
2022-11-16T01:41:55.077Z,6.70
2022-11-16T01:45:01.264Z,6.70
2022-11-16T01:47:30.646Z,6.70
2022-11-16T01:50:09.864Z,6.70
2022-11-16T01:52:48.278Z,6.70
2022-11-16T01:55:17.371Z,6.70
2022-11-16T01:57:58.926Z,6.70
2022-11-16T02:00:29.699Z,6.60
2022-11-16T02:03:11.772Z,6.70
2022-11-16T02:06:14.940Z,6.60
2022-11-16T02:09:27.413Z,6.60
2022-11-16T02:12:24.250Z,6.60
2022-11-16T02:15:10.729Z,6.60
2022-11-16T02:17:53.051Z,6.60
2022-11-16T02:20:53.474Z,6.60
2022-11-16T02:24:03.810Z,6.60
2022-11-16T02:27:17.318Z,6.60
2022-11-16T02:29:52.356Z,6.60
2022-11-16T02:32:29.487Z,6.60
2022-11-16T02:35:05.906Z,6.60
2022-11-16T02:37:41.416Z,6.50
2022-11-16T02:40:15.855Z,6.40
2022-11-16T02:42:52.389Z,6.40
2022-11-16T02:45:26.485Z,6.30
2022-11-16T02:48:01.097Z,6.30
2022-11-16T02:50:31.951Z,6.40
2022-11-16T02:53:00.127Z,6.30
2022-11-16T02:55:34.876Z,6.30
2022-11-16T02:58:06.963Z,6.30
2022-11-16T03:00:46.695Z,6.30
2022-11-16T03:03:30.533Z,6.30
2022-11-16T03:06:07.275Z,6.30
2022-11-16T03:08:40.899Z,6.30
2022-11-16T03:11:30.741Z,6.40
2022-11-16T03:14:06.885Z,6.40
2022-11-16T03:16:40.908Z,6.30
2022-11-16T03:19:14.575Z,6.30
2022-11-16T03:21:49.442Z,6.30
2022-11-16T03:24:18.282Z,6.20
2022-11-16T03:26:54.474Z,6.20
2022-11-16T03:29:31.370Z,6.20
2022-11-16T03:32:13.886Z,6.00
2022-11-16T03:34:48.389Z,6.00
2022-11-16T03:37:17.332Z,6.00
2022-11-16T03:39:46.574Z,6.00
2022-11-16T03:42:15.110Z,6.00
2022-11-16T03:44:48.080Z,5.90
2022-11-16T03:47:17.772Z,5.90
2022-11-16T03:49:47.694Z,5.90
2022-11-16T03:52:20.037Z,5.80
2022-11-16T03:54:50.106Z,5.80
2022-11-16T03:57:18.874Z,5.80
2022-11-16T03:59:53.287Z,5.80
2022-11-16T04:02:22.753Z,5.80
2022-11-16T04:05:10.533Z,5.80
2022-11-16T04:07:56.346Z,5.90
2022-11-16T04:10:42.815Z,5.90
2022-11-16T04:13:32.113Z,5.90
2022-11-16T04:16:18.582Z,5.90
2022-11-16T04:19:06.192Z,5.90
2022-11-16T04:21:57.197Z,5.90
2022-11-16T04:24:36.465Z,5.90
2022-11-16T04:27:27.302Z,5.90
2022-11-16T04:29:59.666Z,5.90
2022-11-16T04:32:45.918Z,5.90
2022-11-16T04:35:33.486Z,5.80
2022-11-16T04:38:02.163Z,5.80
2022-11-16T04:40:34.181Z,5.80
2022-11-16T04:43:03.841Z,5.80
2022-11-16T04:45:52.664Z,5.80
2022-11-16T04:48:24.866Z,5.80
2022-11-16T04:50:56.646Z,5.80
2022-11-16T04:53:27.947Z,5.70
2022-11-16T04:56:13.911Z,5.70
2022-11-16T04:58:42.635Z,5.70
2022-11-16T05:01:11.582Z,5.60
2022-11-16T05:03:39.702Z,5.60
2022-11-16T05:06:10.009Z,5.60
2022-11-16T05:08:38.491Z,5.60
2022-11-16T05:11:07.029Z,5.60
2022-11-16T05:13:35.234Z,5.60
2022-11-16T05:16:04.095Z,5.70
2022-11-16T05:18:33.161Z,5.70
2022-11-16T05:21:00.546Z,5.70
2022-11-16T05:23:50.378Z,5.60
2022-11-16T05:26:21.659Z,5.60
2022-11-16T05:28:50.443Z,5.60
2022-11-16T05:31:18.629Z,5.70
2022-11-16T05:33:46.716Z,5.60
2022-11-16T05:36:16.312Z,5.60
2022-11-16T05:38:45.780Z,5.60
2022-11-16T05:41:14.123Z,5.60
2022-11-16T05:43:42.941Z,5.60
2022-11-16T05:46:17.409Z,5.60
2022-11-16T05:48:47.103Z,5.50
2022-11-16T05:51:15.477Z,5.60
2022-11-16T05:53:45.605Z,5.60
2022-11-16T05:56:19.215Z,5.50
2022-11-16T05:58:47.851Z,5.60
2022-11-16T06:01:16.523Z,5.60
2022-11-16T06:03:44.872Z,5.60
2022-11-16T06:06:13.251Z,5.60
2022-11-16T06:08:42.975Z,5.60
2022-11-16T06:11:18.707Z,5.50
2022-11-16T06:13:46.985Z,5.50
2022-11-16T06:16:15.279Z,5.50
2022-11-16T06:18:46.548Z,5.50
2022-11-16T06:21:19.400Z,5.50
2022-11-16T06:23:49.161Z,5.60
2022-11-16T06:26:19.160Z,5.60
2022-11-16T06:28:48.061Z,5.60
2022-11-16T06:31:16.166Z,5.60
2022-11-16T06:33:44.259Z,5.60
2022-11-16T06:36:20.601Z,5.60
2022-11-16T06:38:49.478Z,5.60
2022-11-16T06:41:19.945Z,5.60
2022-11-16T06:43:50.428Z,5.60
2022-11-16T06:46:21.924Z,5.60
2022-11-16T06:48:50.070Z,5.60
2022-11-16T06:51:19.163Z,5.60
2022-11-16T06:53:48.243Z,5.60
2022-11-16T06:56:17.321Z,5.50
2022-11-16T06:58:53.637Z,5.50
2022-11-16T07:01:22.834Z,5.50
2022-11-16T07:03:53.632Z,5.40
2022-11-16T07:06:22.489Z,5.40
2022-11-16T07:08:50.922Z,5.50
2022-11-16T07:11:24.058Z,5.50
2022-11-16T07:13:54.491Z,5.50
2022-11-16T07:16:23.047Z,5.50
2022-11-16T07:18:59.252Z,5.60
2022-11-16T07:21:30.366Z,5.60
2022-11-16T07:24:00.433Z,5.50
2022-11-16T07:26:31.045Z,5.60
2022-11-16T07:29:06.048Z,5.60
2022-11-16T07:31:36.568Z,5.60
2022-11-16T07:34:33.344Z,5.60
2022-11-16T07:37:10.711Z,5.60
2022-11-16T07:39:39.029Z,5.60
2022-11-16T07:42:12.256Z,5.60
2022-11-16T07:44:52.953Z,5.60
2022-11-16T07:47:21.133Z,5.60
2022-11-16T07:49:49.499Z,5.60
2022-11-16T07:52:23.404Z,5.70
2022-11-16T07:54:57.695Z,5.70
2022-11-16T07:57:28.068Z,5.70
2022-11-16T07:59:59.930Z,5.70
2022-11-16T08:02:30.704Z,5.70
2022-11-16T08:04:58.859Z,5.70
2022-11-16T08:07:29.518Z,5.70
2022-11-16T08:09:58.150Z,5.70
2022-11-16T08:12:26.705Z,5.70
2022-11-16T08:14:56.315Z,5.70
2022-11-16T08:17:26.364Z,5.70
2022-11-16T08:19:55.282Z,5.80
2022-11-16T08:22:23.858Z,5.80
2022-11-16T08:24:51.986Z,5.80
2022-11-16T08:27:20.303Z,5.80
2022-11-16T08:29:52.997Z,5.80
2022-11-16T08:32:22.037Z,5.80
2022-11-16T08:34:52.144Z,5.80
2022-11-16T08:37:20.368Z,5.90
2022-11-16T08:39:49.567Z,5.90
2022-11-16T08:42:17.895Z,5.90
2022-11-16T08:44:48.799Z,5.90
2022-11-16T08:47:19.790Z,5.90
2022-11-16T08:49:58.062Z,5.90
2022-11-16T08:52:28.661Z,6.00
2022-11-16T08:54:57.586Z,6.00
2022-11-16T08:57:25.719Z,6.00
2022-11-16T08:59:58.591Z,5.90
2022-11-16T09:02:26.653Z,5.90
2022-11-16T09:04:57.356Z,5.90
2022-11-16T09:07:25.785Z,5.80
2022-11-16T09:09:53.931Z,5.80
2022-11-16T09:12:21.994Z,5.70
2022-11-16T09:14:50.104Z,5.70
2022-11-16T09:17:22.965Z,5.60
2022-11-16T09:19:51.446Z,5.60
2022-11-16T09:22:20.887Z,5.60
2022-11-16T09:24:49.009Z,5.70
2022-11-16T09:27:17.439Z,5.70
2022-11-16T09:29:45.571Z,5.70
2022-11-16T09:32:13.653Z,5.70
2022-11-16T09:34:41.717Z,5.80
2022-11-16T09:37:09.968Z,5.80
2022-11-16T09:39:39.346Z,5.80
2022-11-16T09:42:29.587Z,5.80
2022-11-16T09:45:04.857Z,5.80
2022-11-16T09:47:48.923Z,5.90
2022-11-16T09:50:46.069Z,5.90
2022-11-16T09:53:26.804Z,6.00
2022-11-16T09:56:01.775Z,5.90
2022-11-16T09:58:37.266Z,6.00
2022-11-16T10:01:21.985Z,6.10
2022-11-16T10:03:56.279Z,6.10
2022-11-16T10:06:36.511Z,6.10
2022-11-16T10:09:05.037Z,6.10
2022-11-16T10:12:00.275Z,6.10
2022-11-16T10:15:16.738Z,6.10
2022-11-16T10:18:09.609Z,6.10
2022-11-16T10:21:00.133Z,6.10
2022-11-16T10:23:49.752Z,6.10
2022-11-16T10:26:30.979Z,6.00
2022-11-16T10:29:22.275Z,6.00
2022-11-16T10:32:14.396Z,6.00
2022-11-16T10:34:51.619Z,6.00
2022-11-16T10:37:21.103Z,6.00
2022-11-16T10:39:53.103Z,6.00
2022-11-16T10:42:30.351Z,6.00
2022-11-16T10:45:07.390Z,6.00
2022-11-16T10:47:44.614Z,6.10
2022-11-16T10:50:38.355Z,6.10
2022-11-16T10:53:06.660Z,6.10
2022-11-16T10:55:34.717Z,6.10
2022-11-16T10:58:06.688Z,6.10
2022-11-16T11:00:51.672Z,6.20
2022-11-16T11:03:32.997Z,6.10
2022-11-16T11:06:01.496Z,6.10
2022-11-16T11:08:32.260Z,6.10
2022-11-16T11:11:23.332Z,6.10
2022-11-16T11:14:10.041Z,6.10
2022-11-16T11:16:41.403Z,6.10
2022-11-16T11:19:20.744Z,6.10
2022-11-16T11:21:50.000Z,6.10
2022-11-16T11:27:07.539Z,6.10
2022-11-16T11:29:39.579Z,6.20
2022-11-16T11:32:22.445Z,6.20
2022-11-16T11:34:54.897Z,6.20
2022-11-16T11:37:28.491Z,6.10
2022-11-16T11:40:23.345Z,6.20
2022-11-16T11:43:00.906Z,6.20
2022-11-16T11:45:41.572Z,6.20
2022-11-16T11:48:35.583Z,6.20
2022-11-16T11:51:13.184Z,6.20
2022-11-16T11:53:52.783Z,6.20
2022-11-16T11:56:21.267Z,6.20
2022-11-16T11:58:51.626Z,6.20
2022-11-16T12:02:03.389Z,6.30
2022-11-16T12:05:03.795Z,6.20
2022-11-16T12:07:55.345Z,6.30
2022-11-16T12:10:38.997Z,6.20
2022-11-16T12:13:34.796Z,6.20
2022-11-16T12:16:18.360Z,6.20
2022-11-16T12:19:17.251Z,6.30
2022-11-16T12:22:04.038Z,6.30
2022-11-16T12:24:56.675Z,6.40
2022-11-16T12:27:38.380Z,6.40
2022-11-16T12:30:14.338Z,6.40
2022-11-16T12:33:11.726Z,6.50
2022-11-16T12:35:58.855Z,6.50
2022-11-16T12:38:45.956Z,6.60
2022-11-16T12:41:47.740Z,6.60
2022-11-16T12:44:26.819Z,6.60
2022-11-16T12:47:08.095Z,6.70
2022-11-16T12:50:14.691Z,6.70
2022-11-16T12:53:10.520Z,6.80
2022-11-16T12:55:54.452Z,6.80
2022-11-16T12:58:38.923Z,6.80
2022-11-16T13:01:19.111Z,6.90
2022-11-16T13:03:53.552Z,7.00
2022-11-16T13:06:29.731Z,6.90
2022-11-16T13:09:08.319Z,7.00
2022-11-16T13:11:42.907Z,7.00
2022-11-16T13:14:19.345Z,6.90
2022-11-16T13:16:49.203Z,7.00
2022-11-16T13:19:19.346Z,7.00
2022-11-16T13:21:56.752Z,7.00
2022-11-16T13:24:39.690Z,7.00
2022-11-16T13:27:24.839Z,7.10
2022-11-16T13:30:05.033Z,7.00
2022-11-16T13:32:51.060Z,7.00
2022-11-16T13:35:20.939Z,7.00
2022-11-16T13:37:50.448Z,7.00
2022-11-16T13:40:31.381Z,7.00
2022-11-16T13:43:16.714Z,7.00
2022-11-16T13:45:55.479Z,7.00
2022-11-16T13:48:32.640Z,7.00
2022-11-16T13:51:05.381Z,6.90
2022-11-16T13:54:37.826Z,6.90
2022-11-16T13:56:29.318Z,6.90
2022-11-16T13:58:59.875Z,7.00
2022-11-16T14:01:56.559Z,7.00
2022-11-16T14:04:57.846Z,7.00
2022-11-16T14:07:32.913Z,7.00
2022-11-16T14:10:02.036Z,7.00
2022-11-16T14:13:01.191Z,7.10
2022-11-16T14:15:38.954Z,7.10
2022-11-16T14:18:35.117Z,7.20
2022-11-16T14:21:17.982Z,7.20
2022-11-16T14:24:11.079Z,7.20
2022-11-16T14:26:57.739Z,7.20
2022-11-16T14:29:56.552Z,7.30
2022-11-16T14:32:29.562Z,7.30
2022-11-16T14:35:00.050Z,7.40
2022-11-16T14:37:39.719Z,7.40
2022-11-16T14:40:17.750Z,7.50
2022-11-16T14:43:17.722Z,7.50
2022-11-16T14:45:40.774Z,7.40
2022-11-16T14:48:19.442Z,7.50
2022-11-16T14:51:05.113Z,7.50
2022-11-16T14:53:36.482Z,7.50
2022-11-16T14:56:11.654Z,7.60
2022-11-16T14:58:40.619Z,7.60
2022-11-16T15:01:15.371Z,7.60
2022-11-16T15:03:55.629Z,7.60
2022-11-16T15:06:26.773Z,7.60
2022-11-16T15:09:00.170Z,7.60
2022-11-16T15:11:46.329Z,7.70
2022-11-16T15:14:20.702Z,7.60
2022-11-16T15:16:51.900Z,7.60
2022-11-16T15:19:22.219Z,7.60
2022-11-16T15:21:55.106Z,7.60
2022-11-16T15:24:31.043Z,7.50
2022-11-16T15:27:12.524Z,7.60
2022-11-16T15:29:40.727Z,7.50
2022-11-16T15:32:17.063Z,7.60
2022-11-16T15:34:51.550Z,7.60
2022-11-16T15:37:29.618Z,7.50
2022-11-16T15:39:58.992Z,7.50
2022-11-16T15:42:29.214Z,7.50
2022-11-16T15:45:00.163Z,7.50
2022-11-16T15:47:29.004Z,7.50
2022-11-16T15:49:59.094Z,7.40
2022-11-16T15:52:44.494Z,7.50
2022-11-16T15:55:24.703Z,7.50
2022-11-16T15:58:14.027Z,7.50
2022-11-16T16:00:43.499Z,7.50
2022-11-16T16:03:22.803Z,7.60
2022-11-16T16:05:53.012Z,7.60
2022-11-16T16:08:31.539Z,7.70
2022-11-16T16:11:11.295Z,7.70
2022-11-16T16:13:43.086Z,7.70
2022-11-16T16:16:36.201Z,7.70
2022-11-16T16:19:10.034Z,7.70
2022-11-16T16:21:46.364Z,7.70
2022-11-16T16:24:39.323Z,7.60
2022-11-16T16:27:17.906Z,7.70
2022-11-16T16:29:47.122Z,7.70
2022-11-16T16:32:28.713Z,7.70
2022-11-16T16:34:59.266Z,7.70
2022-11-16T16:37:32.344Z,7.70
2022-11-16T16:40:01.289Z,7.70
2022-11-16T16:42:29.778Z,7.70
2022-11-16T16:45:02.830Z,7.70
2022-11-16T16:47:32.493Z,7.70
2022-11-16T16:50:00.601Z,7.70
2022-11-16T16:52:30.463Z,7.70
2022-11-16T16:54:58.595Z,7.70
2022-11-16T16:57:26.650Z,7.60
2022-11-16T16:59:55.086Z,7.60
2022-11-16T17:02:25.429Z,7.70
2022-11-16T17:04:53.822Z,7.60
2022-11-16T17:07:21.989Z,7.50
2022-11-16T17:09:51.566Z,7.50
2022-11-16T17:12:19.744Z,7.50
2022-11-16T17:14:52.174Z,7.40
2022-11-16T17:17:21.139Z,7.40
2022-11-16T17:19:49.275Z,7.40
2022-11-16T17:22:17.920Z,7.40
2022-11-16T17:24:46.012Z,7.50
2022-11-16T17:27:15.500Z,7.50
2022-11-16T17:29:43.795Z,7.50
2022-11-16T17:32:12.243Z,7.40
2022-11-16T17:34:41.460Z,7.40
2022-11-16T17:37:09.735Z,7.40
2022-11-16T17:39:38.152Z,7.30
2022-11-16T17:42:06.534Z,7.30
2022-11-16T17:44:38.051Z,7.30
2022-11-16T17:47:07.798Z,7.30
2022-11-16T17:49:36.800Z,7.30
2022-11-16T17:52:06.152Z,7.30
2022-11-16T17:54:34.811Z,7.30
2022-11-16T17:57:02.872Z,7.30
2022-11-16T17:59:30.944Z,7.30
2022-11-16T18:02:00.359Z,7.30
2022-11-16T18:04:28.506Z,7.30
2022-11-16T18:06:56.879Z,7.30
2022-11-16T18:09:27.800Z,7.30
2022-11-16T18:11:57.331Z,7.30
2022-11-16T18:14:25.479Z,7.30
2022-11-16T18:16:53.647Z,7.20
2022-11-16T18:19:23.094Z,7.20
2022-11-16T18:21:51.527Z,7.20
2022-11-16T18:24:19.620Z,7.20
2022-11-16T18:26:48.884Z,7.20
2022-11-16T18:29:19.167Z,7.20
2022-11-16T18:31:47.247Z,7.20
2022-11-16T18:34:16.166Z,7.20
2022-11-16T18:36:46.362Z,7.20
2022-11-16T18:39:14.472Z,7.10
2022-11-16T18:41:50.097Z,7.10
2022-11-16T18:44:22.681Z,7.00
2022-11-16T18:46:50.776Z,7.00
2022-11-16T18:49:18.913Z,7.00
2022-11-16T18:51:48.355Z,7.00
2022-11-16T18:54:16.720Z,7.00
2022-11-16T18:56:44.802Z,7.10
2022-11-16T18:59:12.878Z,7.10
2022-11-16T19:01:40.993Z,7.10
2022-11-16T19:04:10.399Z,7.10
2022-11-16T19:06:38.566Z,7.10
2022-11-16T19:09:09.671Z,7.00
2022-11-16T19:11:38.190Z,6.90
2022-11-16T19:14:07.929Z,6.90
2022-11-16T19:16:36.594Z,6.90
2022-11-16T19:19:05.935Z,6.80
2022-11-16T19:21:34.145Z,6.80
2022-11-16T19:24:02.332Z,6.80
2022-11-16T19:26:32.264Z,6.70
2022-11-16T19:29:02.035Z,6.80
2022-11-16T19:31:32.936Z,6.80
2022-11-16T19:34:04.339Z,6.80
2022-11-16T19:36:33.994Z,6.70
2022-11-16T19:39:02.994Z,6.80
2022-11-16T19:41:32.871Z,6.80
2022-11-16T19:44:02.087Z,6.80
2022-11-16T19:46:33.756Z,6.80
2022-11-16T19:49:03.384Z,6.90
2022-11-16T19:51:34.122Z,7.00
2022-11-16T19:54:03.995Z,7.00
2022-11-16T19:56:33.437Z,7.10
2022-11-16T19:59:01.839Z,7.00
2022-11-16T20:01:30.150Z,6.80
2022-11-16T20:04:00.636Z,6.70
2022-11-16T20:06:31.464Z,6.50
2022-11-16T20:09:04.054Z,6.30
2022-11-16T20:11:34.629Z,6.40
2022-11-16T20:14:04.718Z,6.30
2022-11-16T20:16:39.010Z,6.40
2022-11-16T20:19:08.541Z,6.30
2022-11-16T20:21:39.213Z,6.30
2022-11-16T20:24:10.923Z,6.30
2022-11-16T20:26:44.619Z,6.40
2022-11-16T20:29:13.980Z,6.40
2022-11-16T20:31:45.262Z,6.40
2022-11-16T20:34:15.315Z,6.30
2022-11-16T20:36:45.687Z,6.10
2022-11-16T20:39:15.832Z,6.10
2022-11-16T20:41:45.443Z,6.10
2022-11-16T20:44:18.250Z,6.20
2022-11-16T20:46:46.463Z,6.20
2022-11-16T20:49:14.769Z,6.30
2022-11-16T20:51:43.172Z,6.30
2022-11-16T20:54:11.445Z,6.40
2022-11-16T20:56:39.541Z,6.40
2022-11-16T20:59:09.146Z,6.50
2022-11-16T21:01:37.362Z,6.50
2022-11-16T21:04:07.558Z,6.40
2022-11-16T21:06:35.820Z,6.50
2022-11-16T21:09:04.680Z,6.40
2022-11-16T21:11:54.721Z,6.40
2022-11-16T21:14:23.920Z,6.40
2022-11-16T21:16:52.011Z,6.40
2022-11-16T21:19:20.233Z,6.50
2022-11-16T21:21:48.368Z,6.50
2022-11-16T21:24:16.444Z,6.60
2022-11-16T21:26:44.488Z,6.60
2022-11-16T21:29:12.620Z,6.60
2022-11-16T21:31:42.001Z,6.60
2022-11-16T21:34:10.160Z,6.70
2022-11-16T21:36:38.191Z,6.70
2022-11-16T21:39:06.400Z,6.70
2022-11-16T21:41:34.687Z,6.80
2022-11-16T21:44:02.711Z,6.70
2022-11-16T21:46:30.759Z,6.80
2022-11-16T21:49:00.452Z,6.80
2022-11-16T21:51:28.973Z,6.90
2022-11-16T21:53:57.168Z,7.00
2022-11-16T21:56:26.918Z,7.10
2022-11-16T21:58:55.415Z,7.10
2022-11-16T22:01:24.789Z,7.10
2022-11-16T22:04:06.919Z,7.10
2022-11-16T22:06:56.249Z,7.10
2022-11-16T22:09:24.338Z,7.20
2022-11-16T22:11:52.395Z,7.30
2022-11-16T22:14:20.462Z,7.30
2022-11-16T22:16:48.513Z,7.40
2022-11-16T22:19:16.608Z,7.30
2022-11-16T22:21:46.010Z,7.30
2022-11-16T22:24:14.281Z,7.30
2022-11-16T22:26:42.418Z,7.30
2022-11-16T22:29:10.538Z,7.30
2022-11-16T22:31:38.604Z,7.40
2022-11-16T22:34:06.835Z,7.40
2022-11-16T22:36:34.871Z,7.50
2022-11-16T22:39:04.485Z,7.50
2022-11-16T22:41:32.547Z,7.50
2022-11-16T22:44:00.607Z,7.50
2022-11-16T22:46:28.753Z,7.50
2022-11-16T22:48:56.951Z,7.60
2022-11-16T22:51:27.601Z,7.60
2022-11-16T22:53:57.427Z,7.70
2022-11-16T22:56:28.014Z,7.70
2022-11-16T22:58:56.978Z,7.70
2022-11-16T23:01:25.883Z,7.70
2022-11-16T23:03:53.999Z,7.80
2022-11-16T23:06:22.110Z,7.80
2022-11-16T23:08:50.851Z,7.80
2022-11-16T23:11:38.890Z,7.80
2022-11-16T23:14:31.154Z,7.80
2022-11-16T23:16:59.728Z,7.80
2022-11-16T23:19:45.537Z,7.80
2022-11-16T23:22:34.003Z,7.80
2022-11-16T23:25:20.465Z,7.80
2022-11-16T23:27:56.405Z,7.80
2022-11-16T23:30:27.202Z,7.80
2022-11-16T23:32:56.539Z,7.80
2022-11-16T23:35:24.783Z,7.80
2022-11-16T23:37:58.413Z,7.80
2022-11-16T23:40:29.400Z,7.80
2022-11-16T23:43:15.898Z,7.80
2022-11-16T23:45:46.294Z,7.80
2022-11-16T23:48:17.317Z,7.80
2022-11-16T23:50:46.859Z,7.70
2022-11-16T23:53:15.307Z,7.70
2022-11-16T23:55:43.407Z,7.70
2022-11-16T23:58:15.136Z,7.70
